sensor_id;sensor_type;location;lat;lon;timestamp;temperature;humidity
20438;DHT22;17436;50.338;8.810;2022-07-15T00:02:07;18.90;1.00
20438;DHT22;17436;50.338;8.810;2022-07-15T00:04:34;18.90;1.00
20438;DHT22;17436;50.338;8.810;2022-07-15T00:07:02;19.00;1.00
20438;DHT22;17436;50.338;8.810;2022-07-15T00:09:31;19.00;1.00
20438;DHT22;17436;50.338;8.810;2022-07-15T00:12:15;19.00;1.00
20438;DHT22;17436;50.338;8.810;2022-07-15T00:14:41;19.00;1.00
20438;DHT22;17436;50.338;8.810;2022-07-15T00:17:10;19.00;1.00
20438;DHT22;17436;50.338;8.810;2022-07-15T00:19:37;18.90;1.00
20438;DHT22;17436;50.338;8.810;2022-07-15T00:22:04;18.90;1.00
20438;DHT22;17436;50.338;8.810;2022-07-15T00:24:32;19.00;1.00
20438;DHT22;17436;50.338;8.810;2022-07-15T00:26:59;19.00;1.00
20438;DHT22;17436;50.338;8.810;2022-07-15T00:29:26;19.00;1.00
20438;DHT22;17436;50.338;8.810;2022-07-15T00:31:53;18.90;1.00
20438;DHT22;17436;50.338;8.810;2022-07-15T00:34:20;18.90;1.00
20438;DHT22;17436;50.338;8.810;2022-07-15T00:36:48;19.00;1.00
20438;DHT22;17436;50.338;8.810;2022-07-15T00:39:17;19.00;1.00
20438;DHT22;17436;50.338;8.810;2022-07-15T00:41:47;19.00;1.00
20438;DHT22;17436;50.338;8.810;2022-07-15T00:44:16;18.90;1.00
20438;DHT22;17436;50.338;8.810;2022-07-15T00:46:45;18.90;1.00
20438;DHT22;17436;50.338;8.810;2022-07-15T00:49:14;18.90;1.00
20438;DHT22;17436;50.338;8.810;2022-07-15T00:51:46;18.80;1.00
20438;DHT22;17436;50.338;8.810;2022-07-15T00:54:16;18.70;1.00
20438;DHT22;17436;50.338;8.810;2022-07-15T00:56:46;18.80;1.00
20438;DHT22;17436;50.338;8.810;2022-07-15T00:59:14;18.80;1.00
20438;DHT22;17436;50.338;8.810;2022-07-15T01:01:41;18.80;1.00
20438;DHT22;17436;50.338;8.810;2022-07-15T01:04:09;18.80;1.00
20438;DHT22;17436;50.338;8.810;2022-07-15T01:06:38;18.80;1.00
20438;DHT22;17436;50.338;8.810;2022-07-15T01:09:06;18.80;1.00
20438;DHT22;17436;50.338;8.810;2022-07-15T01:11:35;18.60;1.00
20438;DHT22;17436;50.338;8.810;2022-07-15T01:14:03;18.60;1.00
20438;DHT22;17436;50.338;8.810;2022-07-15T01:16:31;18.50;1.00
20438;DHT22;17436;50.338;8.810;2022-07-15T01:18:58;18.50;1.00
20438;DHT22;17436;50.338;8.810;2022-07-15T01:21:26;18.50;1.00
20438;DHT22;17436;50.338;8.810;2022-07-15T01:23:53;18.50;1.00
20438;DHT22;17436;50.338;8.810;2022-07-15T01:26:20;18.50;1.00
20438;DHT22;17436;50.338;8.810;2022-07-15T01:28:46;18.50;1.00
20438;DHT22;17436;50.338;8.810;2022-07-15T01:31:13;18.50;1.00
20438;DHT22;17436;50.338;8.810;2022-07-15T01:33:40;18.50;1.00
20438;DHT22;17436;50.338;8.810;2022-07-15T01:36:07;18.50;1.00
20438;DHT22;17436;50.338;8.810;2022-07-15T01:38:35;18.50;1.00
20438;DHT22;17436;50.338;8.810;2022-07-15T01:41:03;18.30;1.00
20438;DHT22;17436;50.338;8.810;2022-07-15T01:43:30;18.40;1.00
20438;DHT22;17436;50.338;8.810;2022-07-15T01:45:58;18.30;1.00
20438;DHT22;17436;50.338;8.810;2022-07-15T01:48:26;18.30;1.00
20438;DHT22;17436;50.338;8.810;2022-07-15T01:51:11;18.00;1.00
20438;DHT22;17436;50.338;8.810;2022-07-15T01:53:39;17.40;1.00
20438;DHT22;17436;50.338;8.810;2022-07-15T01:56:06;17.60;1.00
20438;DHT22;17436;50.338;8.810;2022-07-15T01:58:33;17.50;1.00
20438;DHT22;17436;50.338;8.810;2022-07-15T02:01:00;16.70;1.00
20438;DHT22;17436;50.338;8.810;2022-07-15T02:03:28;16.90;1.00
20438;DHT22;17436;50.338;8.810;2022-07-15T02:05:55;16.50;1.00
20438;DHT22;17436;50.338;8.810;2022-07-15T02:08:21;16.50;1.00
20438;DHT22;17436;50.338;8.810;2022-07-15T02:10:49;17.10;1.00
20438;DHT22;17436;50.338;8.810;2022-07-15T02:13:17;17.30;1.00
20438;DHT22;17436;50.338;8.810;2022-07-15T02:15:43;17.30;1.00
20438;DHT22;17436;50.338;8.810;2022-07-15T02:18:10;17.00;1.00
20438;DHT22;17436;50.338;8.810;2022-07-15T02:20:37;16.70;1.00
20438;DHT22;17436;50.338;8.810;2022-07-15T02:23:05;16.90;1.00
20438;DHT22;17436;50.338;8.810;2022-07-15T02:25:33;16.70;1.00
20438;DHT22;17436;50.338;8.810;2022-07-15T02:28:03;17.00;1.00
20438;DHT22;17436;50.338;8.810;2022-07-15T02:30:32;17.20;1.00
20438;DHT22;17436;50.338;8.810;2022-07-15T02:33:00;17.20;1.00
20438;DHT22;17436;50.338;8.810;2022-07-15T02:35:27;17.20;1.00
20438;DHT22;17436;50.338;8.810;2022-07-15T02:37:54;17.30;1.00
20438;DHT22;17436;50.338;8.810;2022-07-15T02:40:21;17.30;1.00
20438;DHT22;17436;50.338;8.810;2022-07-15T02:42:49;17.30;1.00
20438;DHT22;17436;50.338;8.810;2022-07-15T02:45:18;17.40;1.00
20438;DHT22;17436;50.338;8.810;2022-07-15T02:47:45;17.40;1.00
20438;DHT22;17436;50.338;8.810;2022-07-15T02:50:12;17.40;1.00
20438;DHT22;17436;50.338;8.810;2022-07-15T02:52:40;17.30;1.00
20438;DHT22;17436;50.338;8.810;2022-07-15T02:55:08;17.20;1.00
20438;DHT22;17436;50.338;8.810;2022-07-15T02:57:36;17.10;1.00
20438;DHT22;17436;50.338;8.810;2022-07-15T03:00:04;17.10;1.00
20438;DHT22;17436;50.338;8.810;2022-07-15T03:02:32;17.10;1.00
20438;DHT22;17436;50.338;8.810;2022-07-15T03:05:00;17.00;1.00
20438;DHT22;17436;50.338;8.810;2022-07-15T03:07:27;17.00;1.00
20438;DHT22;17436;50.338;8.810;2022-07-15T03:09:54;17.20;1.00
20438;DHT22;17436;50.338;8.810;2022-07-15T03:12:21;17.20;1.00
20438;DHT22;17436;50.338;8.810;2022-07-15T03:14:48;17.20;1.00
20438;DHT22;17436;50.338;8.810;2022-07-15T03:17:15;17.20;1.00
20438;DHT22;17436;50.338;8.810;2022-07-15T03:19:43;17.20;1.00
20438;DHT22;17436;50.338;8.810;2022-07-15T03:22:10;17.10;1.00
20438;DHT22;17436;50.338;8.810;2022-07-15T03:24:37;17.10;1.00
20438;DHT22;17436;50.338;8.810;2022-07-15T03:27:05;17.20;1.00
20438;DHT22;17436;50.338;8.810;2022-07-15T03:29:33;17.00;1.00
20438;DHT22;17436;50.338;8.810;2022-07-15T03:32:00;17.10;1.00
20438;DHT22;17436;50.338;8.810;2022-07-15T03:34:27;17.00;1.00
20438;DHT22;17436;50.338;8.810;2022-07-15T03:36:55;16.90;1.00
20438;DHT22;17436;50.338;8.810;2022-07-15T03:39:22;16.90;1.00
20438;DHT22;17436;50.338;8.810;2022-07-15T03:41:49;17.10;1.00
20438;DHT22;17436;50.338;8.810;2022-07-15T03:44:16;17.20;1.00
20438;DHT22;17436;50.338;8.810;2022-07-15T03:46:43;17.30;1.00
20438;DHT22;17436;50.338;8.810;2022-07-15T03:49:12;17.20;1.00
20438;DHT22;17436;50.338;8.810;2022-07-15T03:51:40;17.30;1.00
20438;DHT22;17436;50.338;8.810;2022-07-15T03:54:08;17.30;1.00
20438;DHT22;17436;50.338;8.810;2022-07-15T03:56:35;17.40;1.00
20438;DHT22;17436;50.338;8.810;2022-07-15T03:59:03;17.50;1.00
20438;DHT22;17436;50.338;8.810;2022-07-15T04:01:31;17.40;1.00
20438;DHT22;17436;50.338;8.810;2022-07-15T04:03:59;17.40;1.00
20438;DHT22;17436;50.338;8.810;2022-07-15T04:06:26;17.40;1.00
20438;DHT22;17436;50.338;8.810;2022-07-15T04:08:52;17.50;1.00
20438;DHT22;17436;50.338;8.810;2022-07-15T04:11:21;17.50;1.00
20438;DHT22;17436;50.338;8.810;2022-07-15T04:13:47;17.50;1.00
20438;DHT22;17436;50.338;8.810;2022-07-15T04:16:14;17.40;1.00
20438;DHT22;17436;50.338;8.810;2022-07-15T04:18:41;17.50;1.00
20438;DHT22;17436;50.338;8.810;2022-07-15T04:21:09;17.40;1.00
20438;DHT22;17436;50.338;8.810;2022-07-15T04:23:36;17.40;1.00
20438;DHT22;17436;50.338;8.810;2022-07-15T04:26:03;17.40;1.00
20438;DHT22;17436;50.338;8.810;2022-07-15T04:28:31;17.30;1.00
20438;DHT22;17436;50.338;8.810;2022-07-15T04:30:58;17.30;1.00
20438;DHT22;17436;50.338;8.810;2022-07-15T04:33:25;17.10;1.00
20438;DHT22;17436;50.338;8.810;2022-07-15T04:35:52;17.20;1.00
20438;DHT22;17436;50.338;8.810;2022-07-15T04:38:20;17.20;1.00
20438;DHT22;17436;50.338;8.810;2022-07-15T04:40:46;17.30;1.00
20438;DHT22;17436;50.338;8.810;2022-07-15T04:43:14;17.50;1.00
20438;DHT22;17436;50.338;8.810;2022-07-15T04:45:42;17.80;1.00
20438;DHT22;17436;50.338;8.810;2022-07-15T04:48:08;17.90;1.00
20438;DHT22;17436;50.338;8.810;2022-07-15T04:50:50;18.00;1.00
20438;DHT22;17436;50.338;8.810;2022-07-15T04:53:21;18.60;1.00
20438;DHT22;17436;50.338;8.810;2022-07-15T04:55:48;19.20;1.00
20438;DHT22;17436;50.338;8.810;2022-07-15T04:58:15;19.70;1.00
20438;DHT22;17436;50.338;8.810;2022-07-15T05:00:45;20.10;1.00
20438;DHT22;17436;50.338;8.810;2022-07-15T05:03:12;20.60;1.00
20438;DHT22;17436;50.338;8.810;2022-07-15T05:05:39;20.90;1.00
20438;DHT22;17436;50.338;8.810;2022-07-15T05:08:07;21.30;1.00
20438;DHT22;17436;50.338;8.810;2022-07-15T05:10:34;21.70;1.00
20438;DHT22;17436;50.338;8.810;2022-07-15T05:13:01;22.00;1.00
20438;DHT22;17436;50.338;8.810;2022-07-15T05:15:28;22.20;1.00
20438;DHT22;17436;50.338;8.810;2022-07-15T05:17:56;22.40;1.00
20438;DHT22;17436;50.338;8.810;2022-07-15T05:20:22;22.20;1.00
20438;DHT22;17436;50.338;8.810;2022-07-15T05:22:49;22.30;1.00
20438;DHT22;17436;50.338;8.810;2022-07-15T05:25:16;22.70;1.00
20438;DHT22;17436;50.338;8.810;2022-07-15T05:27:43;22.20;1.00
20438;DHT22;17436;50.338;8.810;2022-07-15T05:30:10;22.60;1.00
20438;DHT22;17436;50.338;8.810;2022-07-15T05:32:38;22.30;1.00
20438;DHT22;17436;50.338;8.810;2022-07-15T05:35:07;21.90;1.00
20438;DHT22;17436;50.338;8.810;2022-07-15T05:37:37;21.70;1.00
20438;DHT22;17436;50.338;8.810;2022-07-15T05:40:05;21.90;1.00
20438;DHT22;17436;50.338;8.810;2022-07-15T05:42:32;22.40;1.00
20438;DHT22;17436;50.338;8.810;2022-07-15T05:44:59;22.10;1.00
20438;DHT22;17436;50.338;8.810;2022-07-15T05:47:26;22.20;1.00
20438;DHT22;17436;50.338;8.810;2022-07-15T05:49:53;21.80;1.00
20438;DHT22;17436;50.338;8.810;2022-07-15T05:52:21;21.60;1.00
20438;DHT22;17436;50.338;8.810;2022-07-15T05:54:48;21.80;1.00
20438;DHT22;17436;50.338;8.810;2022-07-15T05:57:14;21.90;1.00
20438;DHT22;17436;50.338;8.810;2022-07-15T05:59:41;22.10;1.00
20438;DHT22;17436;50.338;8.810;2022-07-15T06:02:08;22.30;1.00
20438;DHT22;17436;50.338;8.810;2022-07-15T06:04:35;22.50;1.00
20438;DHT22;17436;50.338;8.810;2022-07-15T06:07:02;22.40;1.00
20438;DHT22;17436;50.338;8.810;2022-07-15T06:09:30;21.60;1.00
20438;DHT22;17436;50.338;8.810;2022-07-15T06:11:57;21.40;1.00
20438;DHT22;17436;50.338;8.810;2022-07-15T06:14:24;21.40;1.00
20438;DHT22;17436;50.338;8.810;2022-07-15T06:16:51;21.20;1.00
20438;DHT22;17436;50.338;8.810;2022-07-15T06:19:18;21.10;1.00
20438;DHT22;17436;50.338;8.810;2022-07-15T06:21:44;21.00;1.00
20438;DHT22;17436;50.338;8.810;2022-07-15T06:24:11;20.90;1.00
20438;DHT22;17436;50.338;8.810;2022-07-15T06:26:39;20.90;1.00
20438;DHT22;17436;50.338;8.810;2022-07-15T06:29:08;20.80;1.00
20438;DHT22;17436;50.338;8.810;2022-07-15T06:31:34;20.80;1.00
20438;DHT22;17436;50.338;8.810;2022-07-15T06:34:01;20.90;1.00
20438;DHT22;17436;50.338;8.810;2022-07-15T06:36:28;21.10;1.00
20438;DHT22;17436;50.338;8.810;2022-07-15T06:38:56;21.20;1.00
20438;DHT22;17436;50.338;8.810;2022-07-15T06:41:23;21.30;1.00
20438;DHT22;17436;50.338;8.810;2022-07-15T06:43:51;21.40;1.00
20438;DHT22;17436;50.338;8.810;2022-07-15T06:46:17;21.10;1.00
20438;DHT22;17436;50.338;8.810;2022-07-15T06:48:44;21.00;1.00
20438;DHT22;17436;50.338;8.810;2022-07-15T06:51:11;21.00;1.00
20438;DHT22;17436;50.338;8.810;2022-07-15T06:53:38;21.10;1.00
20438;DHT22;17436;50.338;8.810;2022-07-15T06:56:05;21.20;1.00
20438;DHT22;17436;50.338;8.810;2022-07-15T06:58:31;21.30;1.00
20438;DHT22;17436;50.338;8.810;2022-07-15T07:01:01;21.30;1.00
20438;DHT22;17436;50.338;8.810;2022-07-15T07:03:28;21.30;1.00
20438;DHT22;17436;50.338;8.810;2022-07-15T07:05:54;21.50;1.00
20438;DHT22;17436;50.338;8.810;2022-07-15T07:08:21;21.60;1.00
20438;DHT22;17436;50.338;8.810;2022-07-15T07:10:48;21.40;1.00
20438;DHT22;17436;50.338;8.810;2022-07-15T07:13:15;21.30;1.00
20438;DHT22;17436;50.338;8.810;2022-07-15T07:15:42;21.30;1.00
20438;DHT22;17436;50.338;8.810;2022-07-15T07:18:10;21.30;1.00
20438;DHT22;17436;50.338;8.810;2022-07-15T07:20:37;21.70;1.00
20438;DHT22;17436;50.338;8.810;2022-07-15T07:23:08;21.90;1.00
20438;DHT22;17436;50.338;8.810;2022-07-15T07:25:36;21.80;1.00
20438;DHT22;17436;50.338;8.810;2022-07-15T07:28:03;21.90;1.00
20438;DHT22;17436;50.338;8.810;2022-07-15T07:30:30;21.90;1.00
20438;DHT22;17436;50.338;8.810;2022-07-15T07:32:57;21.90;1.00
20438;DHT22;17436;50.338;8.810;2022-07-15T07:35:26;21.90;1.00
20438;DHT22;17436;50.338;8.810;2022-07-15T07:37:52;22.20;1.00
20438;DHT22;17436;50.338;8.810;2022-07-15T07:40:19;22.10;1.00
20438;DHT22;17436;50.338;8.810;2022-07-15T07:42:46;22.50;1.00
20438;DHT22;17436;50.338;8.810;2022-07-15T07:45:13;22.80;1.00
20438;DHT22;17436;50.338;8.810;2022-07-15T07:47:39;22.70;1.00
20438;DHT22;17436;50.338;8.810;2022-07-15T07:50:08;22.80;1.00
20438;DHT22;17436;50.338;8.810;2022-07-15T07:52:36;22.80;1.00
20438;DHT22;17436;50.338;8.810;2022-07-15T07:55:04;23.00;1.00
20438;DHT22;17436;50.338;8.810;2022-07-15T07:57:31;22.90;1.00
20438;DHT22;17436;50.338;8.810;2022-07-15T07:59:58;23.00;1.00
20438;DHT22;17436;50.338;8.810;2022-07-15T08:02:25;23.00;1.00
20438;DHT22;17436;50.338;8.810;2022-07-15T08:04:52;23.30;1.00
20438;DHT22;17436;50.338;8.810;2022-07-15T08:07:21;26.50;1.00
20438;DHT22;17436;50.338;8.810;2022-07-15T08:09:49;26.00;1.00
20438;DHT22;17436;50.338;8.810;2022-07-15T08:12:15;25.10;1.00
20438;DHT22;17436;50.338;8.810;2022-07-15T08:14:42;24.20;1.00
20438;DHT22;17436;50.338;8.810;2022-07-15T08:17:09;23.80;1.00
20438;DHT22;17436;50.338;8.810;2022-07-15T08:19:36;23.60;1.00
20438;DHT22;17436;50.338;8.810;2022-07-15T08:22:03;23.60;1.00
20438;DHT22;17436;50.338;8.810;2022-07-15T08:24:29;23.60;1.00
20438;DHT22;17436;50.338;8.810;2022-07-15T08:26:59;23.70;1.00
20438;DHT22;17436;50.338;8.810;2022-07-15T08:29:27;23.70;1.00
20438;DHT22;17436;50.338;8.810;2022-07-15T08:31:53;23.40;1.00
20438;DHT22;17436;50.338;8.810;2022-07-15T08:34:20;23.20;1.00
20438;DHT22;17436;50.338;8.810;2022-07-15T08:36:47;23.10;1.00
20438;DHT22;17436;50.338;8.810;2022-07-15T08:39:13;22.90;1.00
20438;DHT22;17436;50.338;8.810;2022-07-15T08:41:41;22.90;1.00
20438;DHT22;17436;50.338;8.810;2022-07-15T08:44:09;22.90;1.00
20438;DHT22;17436;50.338;8.810;2022-07-15T08:46:35;22.90;1.00
20438;DHT22;17436;50.338;8.810;2022-07-15T08:49:05;23.00;1.00
20438;DHT22;17436;50.338;8.810;2022-07-15T08:51:35;23.50;1.00
20438;DHT22;17436;50.338;8.810;2022-07-15T08:54:04;23.60;1.00
20438;DHT22;17436;50.338;8.810;2022-07-15T08:56:32;23.30;1.00
20438;DHT22;17436;50.338;8.810;2022-07-15T08:59:01;22.80;1.00
20438;DHT22;17436;50.338;8.810;2022-07-15T09:01:30;22.50;1.00
20438;DHT22;17436;50.338;8.810;2022-07-15T09:03:57;22.40;1.00
20438;DHT22;17436;50.338;8.810;2022-07-15T09:06:31;22.60;1.00
20438;DHT22;17436;50.338;8.810;2022-07-15T09:08:59;22.80;1.00
20438;DHT22;17436;50.338;8.810;2022-07-15T09:11:53;23.00;1.00
20438;DHT22;17436;50.338;8.810;2022-07-15T09:14:21;23.30;1.00
20438;DHT22;17436;50.338;8.810;2022-07-15T09:16:50;23.60;1.00
20438;DHT22;17436;50.338;8.810;2022-07-15T09:19:27;24.00;1.00
20438;DHT22;17436;50.338;8.810;2022-07-15T09:22:01;24.10;1.00
20438;DHT22;17436;50.338;8.810;2022-07-15T09:24:28;23.80;1.00
20438;DHT22;17436;50.338;8.810;2022-07-15T09:26:56;23.70;1.00
20438;DHT22;17436;50.338;8.810;2022-07-15T09:29:35;23.80;1.00
20438;DHT22;17436;50.338;8.810;2022-07-15T09:32:21;23.80;1.00
20438;DHT22;17436;50.338;8.810;2022-07-15T09:35:06;23.70;1.00
20438;DHT22;17436;50.338;8.810;2022-07-15T09:37:58;23.20;1.00
20438;DHT22;17436;50.338;8.810;2022-07-15T09:40:24;23.50;1.00
20438;DHT22;17436;50.338;8.810;2022-07-15T09:43:01;24.00;1.00
20438;DHT22;17436;50.338;8.810;2022-07-15T09:45:29;24.10;1.00
20438;DHT22;17436;50.338;8.810;2022-07-15T09:48:22;23.90;1.00
20438;DHT22;17436;50.338;8.810;2022-07-15T09:50:51;23.50;1.00
20438;DHT22;17436;50.338;8.810;2022-07-15T09:53:18;23.20;1.00
20438;DHT22;17436;50.338;8.810;2022-07-15T09:55:44;23.40;1.00
20438;DHT22;17436;50.338;8.810;2022-07-15T09:58:11;23.60;1.00
20438;DHT22;17436;50.338;8.810;2022-07-15T10:00:39;23.80;1.00
20438;DHT22;17436;50.338;8.810;2022-07-15T10:03:06;23.80;1.00
20438;DHT22;17436;50.338;8.810;2022-07-15T10:05:35;24.10;1.00
20438;DHT22;17436;50.338;8.810;2022-07-15T10:08:04;23.90;1.00
20438;DHT22;17436;50.338;8.810;2022-07-15T10:10:32;23.70;1.00
20438;DHT22;17436;50.338;8.810;2022-07-15T10:13:16;23.50;1.00
20438;DHT22;17436;50.338;8.810;2022-07-15T10:15:54;23.30;1.00
20438;DHT22;17436;50.338;8.810;2022-07-15T10:18:37;23.20;1.00
20438;DHT22;17436;50.338;8.810;2022-07-15T10:21:23;22.80;1.00
20438;DHT22;17436;50.338;8.810;2022-07-15T10:24:18;22.50;1.00
20438;DHT22;17436;50.338;8.810;2022-07-15T10:27:01;22.40;1.00
20438;DHT22;17436;50.338;8.810;2022-07-15T10:29:29;22.40;1.00
20438;DHT22;17436;50.338;8.810;2022-07-15T10:31:58;22.60;1.00
20438;DHT22;17436;50.338;8.810;2022-07-15T10:34:28;22.70;1.00
20438;DHT22;17436;50.338;8.810;2022-07-15T10:37:01;22.70;1.00
20438;DHT22;17436;50.338;8.810;2022-07-15T10:39:48;22.80;1.00
20438;DHT22;17436;50.338;8.810;2022-07-15T10:42:17;22.90;1.00
20438;DHT22;17436;50.338;8.810;2022-07-15T10:45:03;22.80;1.00
20438;DHT22;17436;50.338;8.810;2022-07-15T10:47:30;22.90;1.00
20438;DHT22;17436;50.338;8.810;2022-07-15T10:49:57;22.90;1.00
20438;DHT22;17436;50.338;8.810;2022-07-15T10:52:26;22.90;1.00
20438;DHT22;17436;50.338;8.810;2022-07-15T10:55:03;22.80;1.00
20438;DHT22;17436;50.338;8.810;2022-07-15T10:57:50;22.90;1.00
20438;DHT22;17436;50.338;8.810;2022-07-15T11:00:32;23.00;1.00
20438;DHT22;17436;50.338;8.810;2022-07-15T11:03:05;23.00;1.00
20438;DHT22;17436;50.338;8.810;2022-07-15T11:05:33;22.90;1.00
20438;DHT22;17436;50.338;8.810;2022-07-15T11:11:48;23.00;1.00
20438;DHT22;17436;50.338;8.810;2022-07-15T11:17:25;23.60;1.00
20438;DHT22;17436;50.338;8.810;2022-07-15T11:20:05;23.40;1.00
20438;DHT22;17436;50.338;8.810;2022-07-15T11:22:35;23.30;1.00
20438;DHT22;17436;50.338;8.810;2022-07-15T11:25:04;23.30;1.00
20438;DHT22;17436;50.338;8.810;2022-07-15T11:27:31;23.10;1.00
20438;DHT22;17436;50.338;8.810;2022-07-15T11:30:00;23.10;1.00
20438;DHT22;17436;50.338;8.810;2022-07-15T11:32:29;23.00;1.00
20438;DHT22;17436;50.338;8.810;2022-07-15T11:34:58;23.00;1.00
20438;DHT22;17436;50.338;8.810;2022-07-15T11:37:26;23.30;1.00
20438;DHT22;17436;50.338;8.810;2022-07-15T11:40:08;23.50;1.00
20438;DHT22;17436;50.338;8.810;2022-07-15T11:42:35;23.50;1.00
20438;DHT22;17436;50.338;8.810;2022-07-15T11:45:32;23.40;1.00
20438;DHT22;17436;50.338;8.810;2022-07-15T11:47:59;23.10;1.00
20438;DHT22;17436;50.338;8.810;2022-07-15T11:50:26;23.10;1.00
20438;DHT22;17436;50.338;8.810;2022-07-15T11:52:55;23.30;1.00
20438;DHT22;17436;50.338;8.810;2022-07-15T11:55:25;23.30;1.00
20438;DHT22;17436;50.338;8.810;2022-07-15T11:57:51;23.10;1.00
20438;DHT22;17436;50.338;8.810;2022-07-15T12:00:28;23.30;1.00
20438;DHT22;17436;50.338;8.810;2022-07-15T12:03:06;23.60;1.00
20438;DHT22;17436;50.338;8.810;2022-07-15T12:05:33;23.80;1.00
20438;DHT22;17436;50.338;8.810;2022-07-15T12:07:59;23.80;1.00
20438;DHT22;17436;50.338;8.810;2022-07-15T12:10:35;23.70;1.00
20438;DHT22;17436;50.338;8.810;2022-07-15T12:13:03;23.80;1.00
20438;DHT22;17436;50.338;8.810;2022-07-15T12:15:32;23.80;1.00
20438;DHT22;17436;50.338;8.810;2022-07-15T12:17:59;23.60;1.00
20438;DHT22;17436;50.338;8.810;2022-07-15T12:20:26;23.80;1.00
20438;DHT22;17436;50.338;8.810;2022-07-15T12:23:07;23.70;1.00
20438;DHT22;17436;50.338;8.810;2022-07-15T12:25:35;23.50;1.00
20438;DHT22;17436;50.338;8.810;2022-07-15T12:28:02;23.50;1.00
20438;DHT22;17436;50.338;8.810;2022-07-15T12:30:35;23.20;1.00
20438;DHT22;17436;50.338;8.810;2022-07-15T12:33:15;23.00;1.00
20438;DHT22;17436;50.338;8.810;2022-07-15T12:35:42;23.00;1.00
20438;DHT22;17436;50.338;8.810;2022-07-15T12:38:09;23.10;1.00
20438;DHT22;17436;50.338;8.810;2022-07-15T12:40:45;23.40;1.00
20438;DHT22;17436;50.338;8.810;2022-07-15T12:43:12;23.70;1.00
20438;DHT22;17436;50.338;8.810;2022-07-15T12:45:38;23.60;1.00
20438;DHT22;17436;50.338;8.810;2022-07-15T12:48:07;23.70;1.00
20438;DHT22;17436;50.338;8.810;2022-07-15T12:50:36;23.90;1.00
20438;DHT22;17436;50.338;8.810;2022-07-15T12:53:25;23.80;1.00
20438;DHT22;17436;50.338;8.810;2022-07-15T12:55:58;23.40;1.00
20438;DHT22;17436;50.338;8.810;2022-07-15T12:58:28;23.30;1.00
20438;DHT22;17436;50.338;8.810;2022-07-15T13:01:06;23.20;1.00
20438;DHT22;17436;50.338;8.810;2022-07-15T13:03:34;23.40;1.00
20438;DHT22;17436;50.338;8.810;2022-07-15T13:06:00;23.60;1.00
20438;DHT22;17436;50.338;8.810;2022-07-15T13:08:30;23.90;1.00
20438;DHT22;17436;50.338;8.810;2022-07-15T13:11:00;23.90;1.00
20438;DHT22;17436;50.338;8.810;2022-07-15T13:13:29;23.80;1.00
20438;DHT22;17436;50.338;8.810;2022-07-15T13:15:56;23.80;1.00
20438;DHT22;17436;50.338;8.810;2022-07-15T13:18:24;23.80;1.00
20438;DHT22;17436;50.338;8.810;2022-07-15T13:20:52;23.90;1.00
20438;DHT22;17436;50.338;8.810;2022-07-15T13:23:21;23.90;1.00
20438;DHT22;17436;50.338;8.810;2022-07-15T13:25:48;23.70;1.00
20438;DHT22;17436;50.338;8.810;2022-07-15T13:28:17;23.30;1.00
20438;DHT22;17436;50.338;8.810;2022-07-15T13:30:44;23.40;1.00
20438;DHT22;17436;50.338;8.810;2022-07-15T13:33:13;23.40;1.00
20438;DHT22;17436;50.338;8.810;2022-07-15T13:35:40;23.30;1.00
20438;DHT22;17436;50.338;8.810;2022-07-15T13:38:06;23.10;1.00
20438;DHT22;17436;50.338;8.810;2022-07-15T13:40:33;23.10;1.00
20438;DHT22;17436;50.338;8.810;2022-07-15T13:43:00;23.20;1.00
20438;DHT22;17436;50.338;8.810;2022-07-15T13:45:28;23.50;1.00
20438;DHT22;17436;50.338;8.810;2022-07-15T13:47:55;23.50;1.00
20438;DHT22;17436;50.338;8.810;2022-07-15T13:50:23;23.70;1.00
20438;DHT22;17436;50.338;8.810;2022-07-15T13:53:07;23.60;1.00
20438;DHT22;17436;50.338;8.810;2022-07-15T13:55:34;23.50;1.00
20438;DHT22;17436;50.338;8.810;2022-07-15T13:58:01;23.40;1.00
20438;DHT22;17436;50.338;8.810;2022-07-15T14:00:29;23.30;1.00
20438;DHT22;17436;50.338;8.810;2022-07-15T14:02:57;23.30;1.00
20438;DHT22;17436;50.338;8.810;2022-07-15T14:05:24;23.40;1.00
20438;DHT22;17436;50.338;8.810;2022-07-15T14:07:51;23.30;1.00
20438;DHT22;17436;50.338;8.810;2022-07-15T14:10:18;23.30;1.00
20438;DHT22;17436;50.338;8.810;2022-07-15T14:12:45;23.30;1.00
20438;DHT22;17436;50.338;8.810;2022-07-15T14:15:12;23.50;1.00
20438;DHT22;17436;50.338;8.810;2022-07-15T14:17:41;23.50;1.00
20438;DHT22;17436;50.338;8.810;2022-07-15T14:20:08;23.50;1.00
20438;DHT22;17436;50.338;8.810;2022-07-15T14:22:35;23.40;1.00
20438;DHT22;17436;50.338;8.810;2022-07-15T14:25:02;23.30;1.00
20438;DHT22;17436;50.338;8.810;2022-07-15T14:27:30;23.20;1.00
20438;DHT22;17436;50.338;8.810;2022-07-15T14:29:56;23.20;1.00
20438;DHT22;17436;50.338;8.810;2022-07-15T14:32:23;23.30;1.00
20438;DHT22;17436;50.338;8.810;2022-07-15T14:34:52;23.30;1.00
20438;DHT22;17436;50.338;8.810;2022-07-15T14:37:20;23.10;1.00
20438;DHT22;17436;50.338;8.810;2022-07-15T14:39:47;23.20;1.00
20438;DHT22;17436;50.338;8.810;2022-07-15T14:42:13;23.20;1.00
20438;DHT22;17436;50.338;8.810;2022-07-15T14:44:40;23.10;1.00
20438;DHT22;17436;50.338;8.810;2022-07-15T14:47:07;23.10;1.00
20438;DHT22;17436;50.338;8.810;2022-07-15T14:49:34;23.20;1.00
20438;DHT22;17436;50.338;8.810;2022-07-15T14:52:03;23.40;1.00
20438;DHT22;17436;50.338;8.810;2022-07-15T14:54:30;23.40;1.00
20438;DHT22;17436;50.338;8.810;2022-07-15T14:56:57;23.20;1.00
20438;DHT22;17436;50.338;8.810;2022-07-15T14:59:25;23.10;1.00
20438;DHT22;17436;50.338;8.810;2022-07-15T15:01:52;23.10;1.00
20438;DHT22;17436;50.338;8.810;2022-07-15T15:04:18;23.10;1.00
20438;DHT22;17436;50.338;8.810;2022-07-15T15:06:45;23.20;1.00
20438;DHT22;17436;50.338;8.810;2022-07-15T15:09:14;23.20;1.00
20438;DHT22;17436;50.338;8.810;2022-07-15T15:11:40;23.10;1.00
20438;DHT22;17436;50.338;8.810;2022-07-15T15:14:07;23.00;1.00
20438;DHT22;17436;50.338;8.810;2022-07-15T15:16:34;23.00;1.00
20438;DHT22;17436;50.338;8.810;2022-07-15T15:19:00;23.00;1.00
20438;DHT22;17436;50.338;8.810;2022-07-15T15:21:27;23.00;1.00
20438;DHT22;17436;50.338;8.810;2022-07-15T15:23:54;23.00;1.00
20438;DHT22;17436;50.338;8.810;2022-07-15T15:26:22;23.00;1.00
20438;DHT22;17436;50.338;8.810;2022-07-15T15:28:55;23.00;1.00
20438;DHT22;17436;50.338;8.810;2022-07-15T15:31:26;23.00;1.00
20438;DHT22;17436;50.338;8.810;2022-07-15T15:33:53;22.90;1.00
20438;DHT22;17436;50.338;8.810;2022-07-15T15:36:20;22.90;1.00
20438;DHT22;17436;50.338;8.810;2022-07-15T15:38:47;23.00;1.00
20438;DHT22;17436;50.338;8.810;2022-07-15T15:41:14;23.00;1.00
20438;DHT22;17436;50.338;8.810;2022-07-15T15:43:42;23.10;1.00
20438;DHT22;17436;50.338;8.810;2022-07-15T15:46:09;23.00;1.00
20438;DHT22;17436;50.338;8.810;2022-07-15T15:48:35;22.90;1.00
20438;DHT22;17436;50.338;8.810;2022-07-15T15:51:02;22.80;1.00
20438;DHT22;17436;50.338;8.810;2022-07-15T15:53:29;22.80;1.00
20438;DHT22;17436;50.338;8.810;2022-07-15T15:55:56;22.80;1.00
20438;DHT22;17436;50.338;8.810;2022-07-15T15:58:23;22.80;1.00
20438;DHT22;17436;50.338;8.810;2022-07-15T16:00:52;22.80;1.00
20438;DHT22;17436;50.338;8.810;2022-07-15T16:03:20;22.80;1.00